Time;durP1;ratioP1;P1;durP2;ratioP2;P2;SDS_P1;SDS_P2;PMS_P1;PMS_P2;Temp;Humidity;BMP_temperature;BMP_pressure;BME280_temperature;BME280_humidity;BME280_pressure;Samples;Min_cycle;Max_cycle;Signal;HPM_P1;HPM_P2
2023/01/04 00:01:10;;;;;;;12.38;2.42;;;;;;;13.29;80.83;101920.94;4982943;28;20549;-74
2023/01/04 00:03:38;;;;;;;12.48;2.33;;;;;;;13.55;82.02;101938.75;4998851;28;20114;-76
2023/01/04 00:06:06;;;;;;;10.45;2.10;;;;;;;13.50;80.41;101947.97;5012615;28;20064;-75
2023/01/04 00:08:34;;;;;;;7.18;2.05;;;;;;;13.45;81.05;101950.84;5005346;28;20057;-75
2023/01/04 00:11:07;;;;;;;10.88;2.10;;;;;;;13.18;81.33;101941.59;5019619;28;20057;-75
2023/01/04 00:13:34;;;;;;;9.50;2.28;;;;;;;13.49;81.92;101946.31;4998647;28;20053;-74
2023/01/04 00:16:14;;;;;;;7.93;2.20;;;;;;;13.63;81.52;101951.06;4997348;28;20061;-74
2023/01/04 00:18:42;;;;;;;;;;;;;;;13.29;80.19;101959.66;4998180;28;20069;-74
2023/01/04 00:21:13;;;;;;;8.82;2.20;;;;;;;13.33;81.92;101960.72;5012809;28;19921;-74
2023/01/04 00:23:42;;;;;;;10.50;2.28;;;;;;;13.27;81.71;101948.91;4996863;28;20556;-75
2023/01/04 00:26:21;;;;;;;8.63;2.03;;;;;;;13.39;82.68;101954.78;4978504;28;20054;-75
2023/01/04 00:28:55;;;;;;;9.30;2.67;;;;;;;13.47;82.17;101945.81;4997144;28;20514;-75
2023/01/04 00:31:23;;;;;;;8.35;2.05;;;;;;;13.71;80.93;101951.19;4994917;28;20057;-74
2023/01/04 00:33:59;;;;;;;7.72;1.85;;;;;;;13.51;80.43;101938.53;4995695;28;20065;-74
2023/01/04 00:36:27;;;;;;;7.72;2.30;;;;;;;13.43;81.52;101957.78;4996704;28;20522;-74
2023/01/04 00:39:05;;;;;;;8.45;2.45;;;;;;;13.48;82.30;101949.38;4978908;28;20142;-73
2023/01/04 00:41:40;;;;;;;6.90;2.20;;;;;;;13.30;81.27;101939.19;4996558;28;20050;-73
2023/01/04 00:44:27;;;;;;;9.85;1.98;;;;;;;13.62;81.54;101943.88;4984463;28;20050;-75
2023/01/04 00:46:55;;;;;;;7.85;2.33;;;;;;;13.64;82.12;101936.94;4996774;28;20050;-74
2023/01/04 00:49:22;;;;;;;9.43;2.38;;;;;;;13.76;80.86;101945.56;5012000;28;20050;-73
2023/01/04 00:51:50;;;;;;;6.85;2.55;;;;;;;13.49;81.37;101939.97;4996743;28;20058;-73
2023/01/04 00:54:18;;;;;;;12.40;2.70;;;;;;;13.22;81.16;101950.94;4996957;28;20048;-74
2023/01/04 00:56:45;;;;;;;11.38;2.83;;;;;;;13.29;82.15;101949.44;5011197;28;20413;-74
2023/01/04 00:59:14;;;;;;;8.25;2.15;;;;;;;13.41;83.18;101947.00;4995021;28;20065;-74
2023/01/04 01:01:42;;;;;;;9.00;2.10;;;;;;;13.49;81.97;101938.00;4995641;28;20422;-75
2023/01/04 01:04:14;;;;;;;10.73;2.25;;;;;;;13.89;81.32;101933.69;4996153;28;20046;-73
2023/01/04 01:06:42;;;;;;;8.40;2.03;;;;;;;13.46;79.84;101933.09;4995740;28;20054;-74
2023/01/04 01:09:10;;;;;;;8.45;2.20;;;;;;;13.44;82.43;101929.00;4996031;28;20126;-75
2023/01/04 01:11:38;;;;;;;8.15;2.15;;;;;;;13.87;80.88;101926.81;4994376;28;20061;-74
2023/01/04 01:14:07;;;;;;;11.20;2.60;;;;;;;13.79;80.26;101928.31;4978790;28;20050;-74
2023/01/04 01:16:34;;;;;;;12.88;2.60;;;;;;;13.46;80.63;101918.41;4978579;28;20053;-74
2023/01/04 01:19:22;;;;;;;8.20;2.25;;;;;;;13.77;81.89;101914.00;4995966;28;20493;-74
2023/01/04 01:21:49;;;;;;;10.40;2.22;;;;;;;13.61;81.18;101903.50;4994425;28;20058;-74
2023/01/04 01:24:17;;;;;;;6.65;2.00;;;;;;;13.62;80.54;101913.44;4995765;28;20051;-74
2023/01/04 01:26:45;;;;;;;9.27;2.67;;;;;;;13.46;82.11;101910.94;4995006;28;20085;-74
2023/01/04 01:29:12;;;;;;;9.65;2.03;;;;;;;13.51;82.36;101918.34;5011164;28;20046;-73
2023/01/04 01:31:40;;;;;;;12.55;2.65;;;;;;;13.92;81.65;101913.69;4995589;28;20050;-74
2023/01/04 01:34:08;;;;;;;7.05;2.25;;;;;;;13.29;80.66;101918.16;4983073;28;20046;-74
2023/01/04 01:36:36;;;;;;;9.38;2.28;;;;;;;13.33;83.63;101921.97;4987504;28;20054;-75
2023/01/04 01:39:04;;;;;;;9.20;2.22;;;;;;;13.68;82.80;101915.00;4995490;28;20050;-75
2023/01/04 01:41:33;;;;;;;9.13;2.15;;;;;;;13.87;82.34;101927.66;4995369;28;20046;-74
2023/01/04 01:44:23;;;;;;;10.63;2.22;;;;;;;13.95;81.99;101923.31;4978001;28;20051;-74
2023/01/04 01:46:51;;;;;;;7.18;2.00;;;;;;;13.72;80.96;101927.91;4988090;28;20050;-74
2023/01/04 01:49:29;;;;;;;10.77;2.13;;;;;;;13.73;82.07;101931.50;4975907;28;20051;-75
2023/01/04 01:52:01;;;;;;;10.38;2.55;;;;;;;13.98;81.72;101925.50;4973090;28;20050;-75
2023/01/04 01:54:38;;;;;;;7.10;2.13;;;;;;;13.76;81.73;101928.13;4994890;28;20049;-74
2023/01/04 01:57:06;;;;;;;8.60;2.30;;;;;;;13.60;81.13;101927.56;4994250;28;20054;-74
2023/01/04 01:59:35;;;;;;;8.95;2.10;;;;;;;13.65;81.83;101913.63;4994176;28;20578;-76
2023/01/04 02:02:03;;;;;;;8.50;2.35;;;;;;;13.49;82.24;101920.59;4993974;28;20083;-74
2023/01/04 02:04:31;;;;;;;8.45;2.20;;;;;;;13.67;82.16;101913.34;4997548;28;20053;-74
2023/01/04 02:06:58;;;;;;;9.00;2.40;;;;;;;13.35;81.32;101900.38;4999064;28;20062;-74
2023/01/04 02:09:26;;;;;;;10.55;2.30;;;;;;;13.30;82.37;101904.03;4997545;28;20062;-74
2023/01/04 02:11:53;;;;;;;6.88;2.03;;;;;;;13.38;82.11;101900.59;4997687;28;20050;-75
2023/01/04 02:14:26;;;;;;;7.85;2.28;;;;;;;13.44;82.59;101899.34;4998087;28;20057;-73
2023/01/04 02:16:56;;;;;;;10.23;2.90;;;;;;;13.35;81.11;101906.69;4996617;28;20164;-74
2023/01/04 02:19:36;;;;;;;9.60;2.30;;;;;;;13.18;82.24;101902.88;4998619;28;20054;-74
2023/01/04 02:22:15;;;;;;;7.97;2.53;;;;;;;13.39;83.43;101912.44;5005576;28;20046;-74
2023/01/04 02:24:48;;;;;;;11.53;2.47;;;;;;;13.43;82.80;101908.78;4980127;28;20058;-74
2023/01/04 02:27:22;;;;;;;12.43;2.00;;;;;;;13.42;82.73;101904.38;4995305;28;20289;-74
2023/01/04 02:30:20;;;;;;;9.77;3.50;;;;;;;13.43;81.82;101913.50;5030028;28;20042;-74
2023/01/04 02:33:02;;;;;;;7.43;2.00;;;;;;;13.64;82.75;101927.78;4977105;28;20181;-74
2023/01/04 02:35:58;;;;;;;10.80;2.53;;;;;;;13.40;83.21;101916.88;4981429;28;20644;-74
2023/01/04 02:39:10;;;;;;;13.63;2.70;;;;;;;13.24;82.15;101916.31;4940993;28;20074;-75
2023/01/04 02:41:46;;;;;;;11.18;2.45;;;;;;;13.40;81.82;101912.19;4982667;28;20062;-75
2023/01/04 02:44:51;;;;;;;15.35;2.40;;;;;;;13.64;81.07;101923.09;4998679;28;20403;-74
2023/01/04 02:50:39;;;;;;;;;;;;;;;13.85;81.63;101904.13;4994089;28;20490;-75
2023/01/04 02:53:12;;;;;;;4.47;1.52;;;;;;;13.88;80.85;101920.16;4998243;28;19921;-74
2023/01/04 02:55:54;;;;;;;8.93;2.22;;;;;;;13.59;81.23;101923.19;4996320;28;20053;-75
2023/01/04 02:59:14;;;;;;;13.77;2.22;;;;;;;13.72;81.34;101921.56;4996578;28;20076;-75
2023/01/04 03:08:09;;;;;;;7.78;1.52;;;;;;;13.96;81.25;101923.03;4955830;28;20055;-74
2023/01/04 03:10:48;;;;;;;8.98;1.83;;;;;;;13.86;80.38;101925.19;4965027;28;20077;-75
2023/01/04 03:13:24;;;;;;;11.38;1.90;;;;;;;13.74;81.67;101916.56;4997099;28;20054;-76
2023/01/04 03:15:54;;;;;;;9.15;1.70;;;;;;;13.46;81.31;101916.47;4995973;28;20481;-73
2023/01/04 03:18:23;;;;;;;;;;;;;;;13.51;82.95;101919.16;4997615;28;20054;-74
2023/01/04 03:20:51;;;;;;;8.82;1.88;;;;;;;13.70;81.96;101912.75;5012408;28;19941;-74
2023/01/04 03:37:31;;;;;;;11.05;2.03;;;;;;;13.51;80.90;101898.97;5010137;28;20413;-74
2023/01/04 03:49:01;;;;;;;8.05;1.83;;;;;;;13.64;81.74;101876.00;4959887;28;20051;-75
2023/01/04 03:51:33;;;;;;;8.75;1.80;;;;;;;13.79;82.09;101877.69;4961978;28;20051;-74
2023/01/04 03:54:17;;;;;;;9.45;2.03;;;;;;;13.84;81.53;101860.97;4995181;28;20054;-74
2023/01/04 03:56:45;;;;;;;7.18;1.70;;;;;;;13.46;81.80;101865.81;4995691;28;20054;-74
2023/01/04 03:59:12;;;;;;;5.97;1.65;;;;;;;13.77;82.76;101871.63;4995641;28;20077;-73
2023/01/04 04:01:41;;;;;;;11.35;2.28;;;;;;;13.78;81.66;101870.47;4996258;28;20054;-74
2023/01/04 04:09:41;;;;;;;6.75;1.48;;;;;;;13.80;81.98;101854.38;4994760;28;20061;-75
2023/01/04 04:12:09;;;;;;;5.28;1.70;;;;;;;13.81;81.94;101853.28;4996508;28;20057;-73
2023/01/04 04:14:36;;;;;;;6.85;1.73;;;;;;;13.85;82.37;101851.50;4996988;28;20046;-75
2023/01/04 04:17:04;;;;;;;8.32;1.60;;;;;;;13.96;82.17;101850.19;4979437;28;20406;-74
2023/01/04 04:19:31;;;;;;;8.55;1.83;;;;;;;13.95;82.15;101838.28;4978336;28;20069;-74
2023/01/04 04:21:59;;;;;;;5.95;1.60;;;;;;;13.79;82.54;101852.75;4996427;28;20053;-76
2023/01/04 04:24:26;;;;;;;6.25;1.60;;;;;;;13.78;82.23;101856.63;4996338;28;20772;-75
2023/01/04 04:26:54;;;;;;;9.23;1.98;;;;;;;13.76;82.38;101847.81;4995036;28;20083;-74
2023/01/04 04:29:23;;;;;;;8.70;1.63;;;;;;;13.75;82.86;101854.50;4995078;28;20046;-73
2023/01/04 04:31:50;;;;;;;10.13;1.70;;;;;;;13.93;82.32;101870.19;4991371;28;20054;-74
2023/01/04 04:34:18;;;;;;;7.50;1.67;;;;;;;14.00;81.11;101865.06;4959572;28;20051;-74
2023/01/04 04:36:45;;;;;;;6.22;1.90;;;;;;;13.89;82.23;101869.16;4972074;28;20054;-72
2023/01/04 04:39:13;;;;;;;6.15;1.58;;;;;;;13.64;82.10;101861.34;4994898;28;20093;-74
2023/01/04 04:41:41;;;;;;;8.15;1.55;;;;;;;13.81;83.58;101859.63;4995954;28;20058;-73
2023/01/04 04:44:17;;;;;;;5.88;1.42;;;;;;;13.82;84.11;101869.59;4979304;28;20050;-73
2023/01/04 04:46:45;;;;;;;5.78;1.63;;;;;;;13.89;84.06;101869.16;4994148;28;20065;-72
2023/01/04 04:49:13;;;;;;;9.05;1.77;;;;;;;13.77;83.92;101866.91;4996507;28;20046;-73
2023/01/04 04:51:41;;;;;;;10.25;1.95;;;;;;;13.50;83.88;101859.41;4978901;28;20046;-73
2023/01/04 04:54:10;;;;;;;8.10;1.75;;;;;;;13.64;84.29;101853.88;4979568;28;20050;-73
2023/01/04 04:56:37;;;;;;;5.32;1.73;;;;;;;14.07;82.45;101859.94;4996330;28;20050;-73
2023/01/04 04:59:05;;;;;;;11.75;1.83;;;;;;;14.04;82.83;101853.06;4997968;28;20498;-74
2023/01/04 05:01:33;;;;;;;6.25;2.10;;;;;;;13.77;81.21;101861.38;4997060;28;20062;-74
2023/01/04 05:04:00;;;;;;;11.52;2.13;;;;;;;13.89;82.73;101860.84;4997574;28;20061;-74
2023/01/04 05:06:28;;;;;;;7.53;1.60;;;;;;;13.98;83.08;101853.47;4995303;28;20062;-73
2023/01/04 05:08:55;;;;;;;6.45;1.80;;;;;;;13.98;83.48;101845.97;4995310;28;20379;-73
2023/01/04 05:14:08;;;;;;;6.63;1.70;;;;;;;13.99;82.85;101846.78;4997874;28;20077;-73
2023/01/04 05:16:36;;;;;;;6.03;1.58;;;;;;;14.10;82.63;101840.75;4995997;28;20073;-73
2023/01/04 05:19:03;;;;;;;5.60;1.45;;;;;;;14.25;82.08;101842.34;5010828;28;20051;-75
2023/01/04 05:21:31;;;;;;;5.88;1.67;;;;;;;14.10;82.32;101839.91;4994202;28;20058;-73
2023/01/04 05:23:58;;;;;;;5.50;1.90;;;;;;;14.09;82.16;101825.22;5010821;28;20083;-73
2023/01/04 05:26:26;;;;;;;8.70;1.77;;;;;;;13.75;83.10;101854.50;4994603;28;20058;-73
2023/01/04 05:28:53;;;;;;;7.05;1.58;;;;;;;13.89;83.60;101835.94;5011316;28;20414;-73
2023/01/04 05:31:20;;;;;;;7.85;1.90;;;;;;;14.04;83.53;101827.28;4995064;28;20057;-73
2023/01/04 05:33:48;;;;;;;5.78;1.70;;;;;;;14.02;83.35;101833.16;4994550;28;20061;-73
2023/01/04 05:36:15;;;;;;;5.68;1.45;;;;;;;14.09;82.83;101830.78;4995559;28;20053;-72
2023/01/04 05:38:43;;;;;;;6.30;1.60;;;;;;;14.13;82.36;101834.59;4996936;28;20047;-74
2023/01/04 05:43:56;;;;;;;4.95;1.23;;;;;;;14.05;82.58;101838.06;4999553;28;20081;-74
2023/01/04 05:46:23;;;;;;;4.28;1.45;;;;;;;14.12;83.90;101843.22;4999002;28;20042;-73
2023/01/04 05:48:51;;;;;;;4.68;1.30;;;;;;;14.23;83.30;101837.13;4978841;28;20058;-74
2023/01/04 05:51:18;;;;;;;7.10;1.55;;;;;;;14.24;82.70;101840.72;4987987;28;20042;-74
2023/01/04 05:53:45;;;;;;;3.45;1.48;;;;;;;14.20;81.43;101845.22;4999314;28;20426;-73
2023/01/04 05:56:13;;;;;;;3.15;0.98;;;;;;;14.06;82.94;101845.25;4997731;28;20045;-73
2023/01/04 05:58:40;;;;;;;6.22;1.48;;;;;;;13.73;84.52;101842.91;4999268;28;20057;-74
2023/01/04 06:01:08;;;;;;;4.10;1.20;;;;;;;13.74;85.17;101834.28;4998968;28;20042;-74
2023/01/04 06:03:35;;;;;;;2.50;1.20;;;;;;;13.67;86.32;101841.38;4997653;28;20570;-73
2023/01/04 06:06:02;;;;;;;4.05;1.33;;;;;;;14.06;84.64;101848.03;4998656;28;20049;-73
2023/01/04 06:08:30;;;;;;;5.20;1.58;;;;;;;13.83;85.39;101862.91;4997947;28;20046;-74
2023/01/04 06:10:57;;;;;;;3.80;1.20;;;;;;;14.03;85.24;101856.97;5013181;28;20073;-74
2023/01/04 06:13:25;;;;;;;4.18;1.83;;;;;;;14.01;84.41;101875.84;4998974;28;20526;-75
2023/01/04 06:15:52;;;;;;;7.15;2.00;;;;;;;14.04;83.96;101857.75;5013530;28;20628;-73
2023/01/04 06:18:20;;;;;;;4.13;1.80;;;;;;;13.90;84.10;101873.56;4998638;28;20046;-73
2023/01/04 06:20:49;;;;;;;3.72;1.40;;;;;;;14.17;84.38;101868.84;4998091;28;20529;-75
2023/01/04 06:23:17;;;;;;;2.72;1.00;;;;;;;14.29;83.59;101865.59;5013096;28;20061;-74
2023/01/04 06:25:44;;;;;;;3.50;0.90;;;;;;;14.30;83.94;101862.50;4995626;28;20042;-74
2023/01/04 06:28:11;;;;;;;4.78;1.10;;;;;;;14.15;83.60;101860.03;4998389;28;20399;-73
2023/01/04 06:30:39;;;;;;;4.47;1.20;;;;;;;14.25;83.56;101864.53;4998040;28;20425;-74
2023/01/04 06:33:06;;;;;;;5.60;1.15;;;;;;;13.92;84.13;101863.84;4998825;28;20045;-77
2023/01/04 06:35:34;;;;;;;3.05;1.10;;;;;;;14.03;84.56;101847.81;4998204;28;20042;-74
2023/01/04 06:38:02;;;;;;;3.95;1.20;;;;;;;14.29;85.14;101855.31;4981424;28;20065;-75
2023/01/04 06:40:29;;;;;;;3.20;1.38;;;;;;;14.06;84.29;101859.13;4997735;28;20060;-73
2023/01/04 06:42:56;;;;;;;3.30;0.90;;;;;;;14.21;85.24;101863.53;4980680;28;20057;-74
2023/01/04 06:45:24;;;;;;;4.40;1.17;;;;;;;14.15;85.55;101860.03;4996667;28;20054;-74
2023/01/04 06:47:51;;;;;;;2.08;0.90;;;;;;;14.20;85.64;101867.41;4998326;28;20054;-74
2023/01/04 06:50:18;;;;;;;2.28;1.02;;;;;;;13.92;86.37;101871.31;5012086;28;20061;-74
2023/01/04 06:52:46;;;;;;;2.40;0.93;;;;;;;14.08;85.87;101861.56;4998270;28;20055;-78
2023/01/04 06:55:13;;;;;;;3.35;1.13;;;;;;;14.15;85.41;101865.56;4996462;28;20050;-74
2023/01/04 06:57:40;;;;;;;2.63;1.00;;;;;;;14.21;86.01;101880.16;5012731;28;20406;-74
2023/01/04 07:00:08;;;;;;;4.90;1.50;;;;;;;14.27;83.94;101860.34;4995485;28;20050;-73
2023/01/04 07:02:36;;;;;;;4.10;1.30;;;;;;;14.22;86.03;101863.22;4962443;28;20522;-74
2023/01/04 07:05:04;;;;;;;3.83;1.23;;;;;;;14.19;84.19;101869.34;4968339;28;20054;-74
2023/01/04 07:07:32;;;;;;;5.72;1.30;;;;;;;14.19;84.67;101868.53;4967485;28;20055;-75
2023/01/04 07:10:00;;;;;;;1.95;1.00;;;;;;;14.30;84.75;101861.66;4978213;28;20483;-74
2023/01/04 07:12:37;;;;;;;5.95;1.40;;;;;;;14.38;84.40;101864.53;4985844;28;20677;-73
2023/01/04 07:15:05;;;;;;;4.43;1.30;;;;;;;14.25;83.53;101864.53;4977993;28;20055;-73
2023/01/04 07:17:53;;;;;;;5.88;1.40;;;;;;;14.39;82.69;101866.19;4977782;28;20057;-74
2023/01/04 07:20:20;;;;;;;3.00;1.25;;;;;;;14.24;82.58;101863.69;4977830;28;20046;-73
2023/01/04 07:22:48;;;;;;;3.25;1.05;;;;;;;13.92;83.07;101855.53;4981553;28;20050;-74
2023/01/04 07:25:15;;;;;;;3.17;1.30;;;;;;;14.26;84.15;101855.13;4975351;28;20062;-73
2023/01/04 07:27:42;;;;;;;1.63;0.90;;;;;;;14.06;84.27;101853.56;4992386;28;20046;-77
2023/01/04 07:30:10;;;;;;;6.70;1.77;;;;;;;14.16;85.00;101858.88;4988141;28;20053;-74
2023/01/04 07:32:38;;;;;;;2.28;0.80;;;;;;;14.10;84.86;101843.53;4977122;28;20055;-76
2023/01/04 07:35:05;;;;;;;2.25;1.00;;;;;;;14.43;83.17;101846.97;4962130;28;20494;-75
2023/01/04 07:37:33;;;;;;;3.53;1.00;;;;;;;14.23;83.83;101855.69;4984675;28;20046;-75
2023/01/04 07:40:01;;;;;;;4.45;1.05;;;;;;;14.36;83.51;101863.22;4979321;28;20505;-76
2023/01/04 07:42:28;;;;;;;3.75;1.00;;;;;;;14.54;83.27;101873.31;4993330;28;20397;-76
2023/01/04 07:44:55;;;;;;;5.15;1.25;;;;;;;14.27;82.60;101862.28;4945046;28;20046;-75
2023/01/04 07:47:23;;;;;;;5.35;1.20;;;;;;;14.52;82.60;101867.28;4959811;28;20054;-74
2023/01/04 07:49:50;;;;;;;5.57;1.13;;;;;;;14.43;82.82;101860.84;4990201;28;20061;-75
2023/01/04 07:52:17;;;;;;;4.28;1.20;;;;;;;14.55;80.74;101858.34;4978516;28;20057;-74
2023/01/04 07:54:45;;;;;;;2.88;1.08;;;;;;;14.54;83.19;101851.13;4983784;28;20070;-74
2023/01/04 07:57:13;;;;;;;3.70;1.33;;;;;;;14.61;82.29;101852.34;5001734;28;20057;-75
2023/01/04 07:59:40;;;;;;;4.43;0.85;;;;;;;14.59;82.28;101854.63;4980114;28;20046;-74
2023/01/04 08:02:12;;;;;;;2.70;1.23;;;;;;;14.69;82.67;101856.34;4981565;28;20051;-72
2023/01/04 08:04:39;;;;;;;6.00;3.38;;;;;;;14.77;82.28;101863.91;4998282;28;20058;-73
2023/01/04 08:07:07;;;;;;;4.20;1.38;;;;;;;14.41;82.17;101863.09;4977997;28;20061;-73
2023/01/04 08:09:34;;;;;;;3.25;1.20;;;;;;;13.52;86.86;101878.47;4957758;28;20059;-72
2023/01/04 08:12:03;;;;;;;5.75;2.10;;;;;;;13.80;88.63;101862.69;4983004;28;20046;-72
2023/01/04 08:14:31;;;;;;;7.47;2.70;;;;;;;14.25;86.79;101853.44;4972633;28;20059;-73
2023/01/04 08:16:58;;;;;;;10.70;1.95;;;;;;;14.35;85.89;101842.97;4990860;28;20050;-72
2023/01/04 08:19:25;;;;;;;5.85;1.65;;;;;;;14.56;85.12;101859.97;4984650;28;20047;-72
2023/01/04 08:22:13;;;;;;;12.98;6.32;;;;;;;14.84;84.68;101852.38;4984907;28;20051;-73
2023/01/04 08:24:41;;;;;;;13.75;5.57;;;;;;;14.59;83.89;101859.38;4986930;28;20055;-73
2023/01/04 08:27:09;;;;;;;11.60;2.67;;;;;;;14.46;84.12;101838.84;4998049;28;20502;-72
2023/01/04 08:29:37;;;;;;;10.32;2.75;;;;;;;14.57;84.64;101856.88;4976428;28;20046;-75
2023/01/04 08:32:05;;;;;;;11.90;3.10;;;;;;;14.63;84.77;101844.53;4977942;28;20053;-74
2023/01/04 08:34:32;;;;;;;10.80;6.25;;;;;;;14.72;84.00;101846.56;4995879;28;20066;-77
2023/01/04 08:37:00;;;;;;;9.68;4.68;;;;;;;14.93;83.94;101848.53;4978044;28;20055;-78
2023/01/04 08:39:28;;;;;;;9.07;3.05;;;;;;;14.78;83.51;101856.41;5000992;28;20058;-78
2023/01/04 08:41:56;;;;;;;5.78;1.67;;;;;;;14.78;84.23;101851.69;4987417;28;20411;-77
2023/01/04 08:44:37;;;;;;;8.30;1.65;;;;;;;14.73;84.58;101840.72;4978690;28;20054;-78
2023/01/04 08:47:05;;;;;;;5.03;1.33;;;;;;;14.79;84.33;101860.81;4974445;28;20046;-77
2023/01/04 08:49:32;;;;;;;7.22;1.50;;;;;;;14.69;83.62;101856.34;4983476;28;20051;-76
2023/01/04 08:51:59;;;;;;;6.88;2.03;;;;;;;14.75;84.35;101873.69;4978175;28;20073;-80
2023/01/04 08:54:27;;;;;;;9.43;1.40;;;;;;;14.60;83.47;101866.53;4975058;28;20062;-77
2023/01/04 08:56:55;;;;;;;5.30;1.50;;;;;;;14.75;83.55;101859.81;4984684;28;21526;-79
2023/01/04 08:59:22;;;;;;;8.13;1.38;;;;;;;14.73;84.19;101870.41;4976648;28;20281;-79
2023/01/04 09:01:49;;;;;;;4.25;1.25;;;;;;;14.94;84.13;101871.56;4977431;28;20047;-78
2023/01/04 09:04:17;;;;;;;3.17;1.30;;;;;;;14.80;83.99;101865.25;4976802;28;20046;-79
2023/01/04 09:06:44;;;;;;;7.25;2.72;;;;;;;14.76;84.50;101865.06;4976433;28;20047;-78
2023/01/04 09:09:13;;;;;;;25.20;13.95;;;;;;;14.95;84.20;101868.47;4958978;28;20533;-77
2023/01/04 09:11:41;;;;;;;7.85;4.97;;;;;;;14.94;84.97;101864.03;4979545;28;20419;-78
2023/01/04 09:14:09;;;;;;;3.83;1.50;;;;;;;14.96;84.30;101863.75;4963248;28;20043;-78
2023/01/04 09:16:37;;;;;;;3.88;1.52;;;;;;;14.78;85.43;101864.72;4994550;28;20400;-74
2023/01/04 09:19:05;;;;;;;5.10;1.30;;;;;;;14.62;85.80;101864.28;4946861;28;20069;-73
2023/01/04 09:21:32;;;;;;;6.65;1.65;;;;;;;14.93;85.04;101856.88;4979405;28;20061;-73
2023/01/04 09:24:00;;;;;;;8.65;2.28;;;;;;;14.84;84.35;101853.19;4968173;28;20046;-73
2023/01/04 09:26:27;;;;;;;13.05;3.72;;;;;;;15.13;84.39;101848.03;4980155;28;20414;-73
2023/01/04 09:28:55;;;;;;;5.20;1.50;;;;;;;14.96;83.83;101850.69;4982901;28;20145;-74
2023/01/04 09:31:27;;;;;;;6.40;1.42;;;;;;;14.89;83.44;101839.19;4980116;28;20074;-73
2023/01/04 09:33:56;;;;;;;7.65;3.67;;;;;;;14.93;84.18;101840.22;4979011;28;20127;-75
2023/01/04 09:36:43;;;;;;;5.95;2.85;;;;;;;15.06;83.13;101839.34;4986406;28;20043;-72
2023/01/04 09:39:11;;;;;;;7.03;1.90;;;;;;;14.96;81.92;101836.81;4979904;28;20047;-75
2023/01/04 09:41:56;;;;;;;5.38;1.55;;;;;;;14.87;84.69;101843.44;4966426;28;20050;-75
2023/01/04 09:44:35;;;;;;;4.15;1.30;;;;;;;15.22;83.62;101826.69;4963888;28;20063;-77
2023/01/04 09:47:42;;;;;;;4.35;1.20;;;;;;;14.97;83.15;101826.53;4998111;28;20047;-77
2023/01/04 09:50:17;;;;;;;4.40;1.40;;;;;;;14.97;82.98;101844.00;4979506;28;20050;-77
2023/01/04 09:52:55;;;;;;;5.63;1.80;;;;;;;15.05;82.74;101828.53;4963512;28;20051;-74
2023/01/04 09:55:28;;;;;;;4.82;1.30;;;;;;;15.33;83.00;101836.41;4976254;28;20070;-73
2023/01/04 09:58:13;;;;;;;5.50;1.55;;;;;;;15.03;82.79;101841.94;4982617;28;20050;-73
2023/01/04 10:00:44;;;;;;;7.03;4.28;;;;;;;15.18;82.85;101847.91;4971815;28;20050;-75
2023/01/04 10:03:22;;;;;;;9.32;4.38;;;;;;;15.16;82.51;101866.84;4955349;28;20417;-72
2023/01/04 10:05:52;;;;;;;6.55;3.00;;;;;;;15.17;82.59;101862.09;4965959;28;20054;-71
2023/01/04 10:08:20;;;;;;;5.57;3.00;;;;;;;15.32;81.93;101873.63;4961934;28;20620;-71
2023/01/04 10:11:22;;;;;;;8.82;3.35;;;;;;;15.17;81.93;101868.47;4992103;28;20055;-73
2023/01/04 10:14:13;;;;;;;5.80;1.77;;;;;;;15.36;81.18;101859.94;4988407;28;20070;-75
2023/01/04 10:17:19;;;;;;;4.15;1.70;;;;;;;15.33;82.07;101869.72;5000516;28;20042;-73
2023/01/04 10:20:09;;;;;;;5.47;1.60;;;;;;;15.36;82.48;101876.59;4983628;28;20055;-74
2023/01/04 10:23:02;;;;;;;5.57;1.30;;;;;;;15.47;81.79;101870.50;4984260;28;20054;-73
2023/01/04 10:25:38;;;;;;;4.68;1.50;;;;;;;15.50;81.09;101855.13;4975160;28;20135;-72
2023/01/04 10:28:19;;;;;;;5.25;1.67;;;;;;;15.68;80.65;101865.19;5009916;28;20043;-74
2023/01/04 10:31:04;;;;;;;5.60;1.73;;;;;;;15.42;81.72;101859.53;4984717;28;20062;-75
2023/01/04 10:34:01;;;;;;;5.80;1.48;;;;;;;15.49;80.73;101856.28;4986275;28;20054;-73
2023/01/04 10:36:32;;;;;;;5.93;1.75;;;;;;;15.71;80.33;101853.44;4982284;28;20050;-74
2023/01/04 10:39:05;;;;;;;5.25;1.40;;;;;;;15.72;79.70;101855.91;4973652;28;20540;-75
2023/01/04 10:41:37;;;;;;;3.22;1.20;;;;;;;15.64;79.78;101853.06;4967545;28;20058;-74
2023/01/04 10:44:43;;;;;;;3.53;1.20;;;;;;;15.26;80.70;101840.75;4992515;28;20055;-74
2023/01/04 10:47:16;;;;;;;4.53;1.33;;;;;;;15.47;80.57;101842.72;4957140;28;20067;-76
2023/01/04 10:49:48;;;;;;;6.95;1.80;;;;;;;15.53;80.24;101835.06;5004780;28;20058;-75
2023/01/04 10:52:52;;;;;;;5.80;1.33;;;;;;;15.77;78.21;101832.72;4982151;28;20057;-74
2023/01/04 10:55:46;;;;;;;5.95;1.42;;;;;;;15.86;78.18;101846.66;4983109;28;20070;-76
2023/01/04 10:58:45;;;;;;;4.13;1.48;;;;;;;16.19;77.28;101843.16;4974988;28;20042;-74
2023/01/04 11:01:23;;;;;;;5.05;1.55;;;;;;;15.88;77.53;101841.59;4990091;28;20050;-73
2023/01/04 11:04:20;;;;;;;7.60;1.80;;;;;;;15.56;78.97;101843.59;4991333;28;20537;-73
2023/01/04 11:06:49;;;;;;;5.03;1.60;;;;;;;15.68;78.47;101840.19;4982100;28;20070;-73
2023/01/04 11:09:21;;;;;;;12.20;6.93;;;;;;;15.35;79.58;101828.59;4985035;28;20513;-73
2023/01/04 11:11:54;;;;;;;7.10;2.10;;;;;;;15.63;79.43;101832.00;5002703;28;20047;-76
2023/01/04 11:14:23;;;;;;;4.28;1.40;;;;;;;15.39;80.19;101834.31;4991468;28;20051;-75
2023/01/04 11:16:53;;;;;;;7.00;2.42;;;;;;;15.23;80.72;101827.53;4968794;28;20058;-74
2023/01/04 11:19:21;;;;;;;5.32;1.85;;;;;;;15.37;80.82;101839.38;4957204;28;20043;-75
2023/01/04 11:22:01;;;;;;;8.13;2.05;;;;;;;15.28;81.00;101825.44;4993896;28;20051;-75
2023/01/04 11:24:29;;;;;;;;;;;;;;;15.29;81.64;101823.50;4976877;28;20043;-76
2023/01/04 11:27:03;;;;;;;;;;;;;;;15.19;80.69;101830.13;4995200;28;19929;-76
2023/01/04 11:29:45;;;;;;;3.97;1.30;;;;;;;15.25;81.46;101828.84;4980542;28;19926;-76
2023/01/04 11:32:33;;;;;;;6.15;2.03;;;;;;;14.87;83.88;101813.72;4997997;28;20057;-75
2023/01/04 11:35:01;;;;;;;4.70;1.80;;;;;;;14.88;84.91;101818.16;4960962;28;20054;-75
2023/01/04 11:37:34;;;;;;;4.80;1.83;;;;;;;15.32;84.69;101817.28;4978776;28;20050;-75
2023/01/04 11:40:17;;;;;;;7.00;3.78;;;;;;;14.98;83.61;101814.28;4969773;28;20050;-76
2023/01/04 11:42:47;;;;;;;10.45;4.35;;;;;;;15.16;85.23;101813.28;4989937;28;20069;-74
2023/01/04 11:45:21;;;;;;;24.25;10.43;;;;;;;15.41;83.74;101807.88;4981687;28;20054;-73
2023/01/04 11:47:51;;;;;;;18.02;9.48;;;;;;;15.08;84.86;101809.31;4991820;28;20661;-76
2023/01/04 11:50:39;;;;;;;;;;;;;;;15.25;84.85;101806.66;4962130;28;20054;-76
2023/01/04 11:53:54;;;;;;;;;;;;;;;;;;;;;
2023/01/04 11:56:39;;;;;;;32.83;12.30;;;;;;;15.12;85.35;101796.44;5000099;28;20054;-76
2023/01/04 11:59:07;;;;;;;27.63;11.95;;;;;;;15.23;85.75;101795.03;4967505;28;20418;-77
2023/01/04 12:01:43;;;;;;;8.80;4.60;;;;;;;15.35;84.29;101786.09;4970335;28;20051;-74
2023/01/04 12:04:31;;;;;;;6.30;2.78;;;;;;;15.20;85.47;101789.31;4995371;28;20065;-76
2023/01/04 12:07:06;;;;;;;2.85;1.45;;;;;;;15.26;86.27;101788.84;4983089;28;20051;-73
2023/01/04 12:09:33;;;;;;;5.03;1.92;;;;;;;15.38;84.70;101772.41;4977261;28;20052;-73
2023/01/04 12:12:01;;;;;;;4.65;2.00;;;;;;;15.27;85.77;101776.59;4977831;28;20046;-75
2023/01/04 12:14:31;;;;;;;6.03;2.20;;;;;;;15.28;86.44;101785.75;4978101;28;20046;-74
2023/01/04 12:17:22;;;;;;;7.32;2.50;;;;;;;15.19;86.64;101779.31;4981217;28;20054;-75
2023/01/04 12:19:53;;;;;;;10.90;6.97;;;;;;;15.37;85.71;101776.34;4981420;28;20046;-76
2023/01/04 12:22:31;;;;;;;5.07;2.67;;;;;;;15.30;85.10;101781.53;4965935;28;20046;-76
2023/01/04 12:24:59;;;;;;;6.35;2.78;;;;;;;15.29;86.34;101785.44;4962200;28;20510;-76
2023/01/04 12:27:27;;;;;;;5.82;3.30;;;;;;;15.31;86.17;101779.53;4964285;28;20063;-77
2023/01/04 12:30:00;;;;;;;8.10;2.40;;;;;;;15.00;87.16;101779.56;4985005;28;20046;-76
2023/01/04 12:32:27;;;;;;;4.43;2.25;;;;;;;15.13;86.59;101778.63;4958746;28;20088;-76
2023/01/04 12:34:55;;;;;;;5.10;2.28;;;;;;;15.42;87.13;101775.41;4977600;28;20066;-75